Time;durP1;ratioP1;P1;durP2;ratioP2;P2;SDS_P1;SDS_P2;PMS_P1;PMS_P2;Temp;Humidity;BMP_temperature;BMP_pressure;BME280_temperature;BME280_humidity;BME280_pressure;Samples;Min_cycle;Max_cycle;Signal;HPM_P1;HPM_P2
2022/01/04 00:01:47;;;;;;;;;;;;;;;13.90;69.60;98190.31;1729450;82;20091;-61
2022/01/04 00:04:15;;;;;;;;;;;;;;;14.45;65.39;98174.53;1733287;81;20126;-69
2022/01/04 00:06:45;;;;;;;;;;;;;;;14.44;64.13;98186.08;1736110;82;20209;-61
2022/01/04 00:09:11;;;;;;;;;;;;;;;13.90;67.67;98189.00;1735274;82;20450;-60
2022/01/04 00:14:21;;;;;;;;;;;;;;;14.78;61.94;98189.83;1734366;82;22417;-67
2022/01/04 00:16:50;;;;;;;;;;;;;;;14.13;65.06;98197.77;1735606;81;21280;-60
2022/01/04 00:19:17;;;;;;;;;;;;;;;14.11;66.53;98187.53;1735267;82;20146;-60
2022/01/04 00:21:45;;;;;;;;;;;;;;;14.24;65.60;98191.49;1735526;82;20139;-63
2022/01/04 00:24:13;;;;;;;;;;;;;;;14.41;65.70;98189.20;1734050;82;20162;-67
2022/01/04 00:26:41;;;;;;;;;;;;;;;14.58;62.86;98185.35;1735379;82;20296;-61
2022/01/04 00:29:08;;;;;;;;;;;;;;;14.55;63.05;98189.02;1735356;82;20086;-61
2022/01/04 00:31:34;;;;;;;;;;;;;;;14.73;61.90;98196.36;1735189;82;20217;-60
2022/01/04 00:34:01;;;;;;;;;;;;;;;14.93;60.36;98193.52;1735300;82;20103;-61
2022/01/04 00:36:33;;;;;;;;;;;;;;;15.13;58.99;98192.20;1733747;82;20412;-67
2022/01/04 00:39:00;;;;;;;;;;;;;;;15.11;58.42;98186.95;1735982;82;22263;-62
2022/01/04 00:41:26;;;;;;;;;;;;;;;15.49;57.28;98188.22;1735149;82;20560;-62
2022/01/04 00:43:52;;;;;;;;;;;;;;;15.36;56.71;98183.53;1735934;82;20163;-62
2022/01/04 00:46:19;;;;;;;;;;;;;;;15.25;56.91;98191.41;1735103;82;20441;-71
2022/01/04 00:51:33;;;;;;;;;;;;;;;14.84;57.75;98195.33;1734983;82;21174;-65
2022/01/04 00:53:59;;;;;;;;;;;;;;;14.89;57.66;98205.56;1734432;82;20185;-70
2022/01/04 00:56:26;;;;;;;;;;;;;;;14.89;57.89;98202.94;1734896;82;20181;-72
2022/01/04 00:58:54;;;;;;;;;;;;;;;14.15;60.24;98215.31;1735233;82;20197;-64
2022/01/04 01:01:20;;;;;;;;;;;;;;;14.19;61.70;98208.52;1736737;82;20235;-65
2022/01/04 01:03:48;;;;;;;;;;;;;;;14.42;60.44;98201.26;1735425;81;21169;-65
2022/01/04 01:06:15;;;;;;;;;;;;;;;14.49;59.62;98192.63;1732084;82;20127;-65
2022/01/04 01:08:41;;;;;;;;;;;;;;;14.42;59.96;98204.66;1733335;82;20173;-65
2022/01/04 01:11:10;;;;;;;;;;;;;;;14.53;58.74;98197.64;1735075;82;20121;-64
2022/01/04 01:13:36;;;;;;;;;;;;;;;14.31;59.38;98209.08;1735045;82;20261;-65
2022/01/04 01:16:04;;;;;;;;;;;;;;;14.19;59.83;98219.00;1734009;82;20428;-73
2022/01/04 01:18:32;;;;;;;;;;;;;;;14.57;58.45;98212.59;1734415;82;20589;-66
2022/01/04 01:21:00;;;;;;;;;;;;;;;14.92;57.07;98216.84;1735457;81;20177;-65
2022/01/04 01:23:28;;;;;;;;;;;;;;;14.77;56.39;98219.73;1735011;82;20102;-65
2022/01/04 01:25:54;;;;;;;;;;;;;;;14.31;57.53;98233.19;1735411;82;20205;-72
2022/01/04 01:28:22;;;;;;;;;;;;;;;14.15;58.08;98231.04;1734693;82;20102;-67
2022/01/04 01:30:49;;;;;;;;;;;;;;;13.91;59.54;98237.74;1734750;82;20098;-66
2022/01/04 01:33:16;;;;;;;;;;;;;;;13.97;58.06;98236.70;1735191;82;20245;-68
2022/01/04 01:35:44;;;;;;;;;;;;;;;14.27;57.11;98251.27;1720525;82;20178;-64
2022/01/04 01:38:11;;;;;;;;;;;;;;;14.24;56.76;98249.67;1735012;82;20111;-71
2022/01/04 01:40:38;;;;;;;;;;;;;;;13.95;57.48;98251.91;1733847;82;22458;-70
2022/01/04 01:43:04;;;;;;;;;;;;;;;13.84;57.91;98253.67;1733884;82;20145;-66
2022/01/04 01:45:32;;;;;;;;;;;;;;;14.08;57.62;98250.13;1735045;82;20523;-66
2022/01/04 01:47:59;;;;;;;;;;;;;;;14.34;55.08;98258.37;1735374;82;20138;-66
2022/01/04 01:50:25;;;;;;;;;;;;;;;13.62;57.24;98272.90;1736228;82;20229;-69
2022/01/04 01:52:52;;;;;;;;;;;;;;;13.61;57.05;98277.87;1735269;82;21595;-67
2022/01/04 01:55:19;;;;;;;;;;;;;;;13.76;56.83;98271.17;1719743;82;20144;-68
2022/01/04 01:57:46;;;;;;;;;;;;;;;13.82;55.93;98270.93;1735567;82;20181;-66
2022/01/04 02:00:14;;;;;;;;;;;;;;;13.65;55.92;98279.47;1735291;82;20090;-66
2022/01/04 02:02:41;;;;;;;;;;;;;;;14.22;54.36;98284.00;1734917;82;20169;-69
2022/01/04 02:05:08;;;;;;;;;;;;;;;14.10;53.39;98287.35;1747299;81;21850;-66
2022/01/04 02:07:35;;;;;;;;;;;;;;;13.68;54.82;98286.05;1752287;81;20173;-68
2022/01/04 02:10:03;;;;;;;;;;;;;;;13.44;54.01;98301.28;1751919;81;20099;-67
2022/01/04 02:12:31;;;;;;;;;;;;;;;13.47;55.04;98295.55;1752271;81;20114;-67
2022/01/04 02:14:58;;;;;;;;;;;;;;;13.86;53.14;98302.15;1751723;81;20184;-69
2022/01/04 02:17:26;;;;;;;;;;;;;;;13.63;53.57;98303.27;1751606;81;21113;-68
2022/01/04 02:19:55;;;;;;;;;;;;;;;13.59;53.50;98305.33;1752127;81;20273;-69
2022/01/04 02:22:22;;;;;;;;;;;;;;;13.82;52.55;98310.21;1752401;81;20142;-71
2022/01/04 02:24:49;;;;;;;;;;;;;;;13.82;51.99;98313.36;1751313;81;20177;-69
2022/01/04 02:27:15;;;;;;;;;;;;;;;13.72;51.94;98308.06;1752397;81;20248;-70
2022/01/04 02:29:44;;;;;;;;;;;;;;;13.48;52.02;98313.62;1752520;81;22101;-68
2022/01/04 02:32:11;;;;;;;;;;;;;;;13.16;52.47;98317.50;1751399;81;20189;-68
2022/01/04 02:34:37;;;;;;;;;;;;;;;13.42;51.88;98328.23;1752276;81;20179;-71
2022/01/04 02:37:04;;;;;;;;;;;;;;;13.51;51.35;98329.35;1752251;81;20276;-69
2022/01/04 02:39:31;;;;;;;;;;;;;;;13.24;51.68;98327.55;1753349;81;20209;-68
2022/01/04 02:41:58;;;;;;;;;;;;;;;13.00;51.97;98332.78;1753721;81;21120;-69
2022/01/04 02:44:26;;;;;;;;;;;;;;;12.70;52.96;98338.45;1753229;81;20680;-68
2022/01/04 02:46:52;;;;;;;;;;;;;;;12.53;52.85;98339.80;1752590;81;20167;-70
2022/01/04 02:49:19;;;;;;;;;;;;;;;12.63;52.57;98347.77;1753741;81;20260;-68
2022/01/04 02:51:45;;;;;;;;;;;;;;;12.88;51.69;98360.38;1753651;81;20159;-69
2022/01/04 02:54:12;;;;;;;;;;;;;;;12.98;51.38;98366.22;1753699;81;21229;-69
2022/01/04 02:56:40;;;;;;;;;;;;;;;13.06;50.33;98356.63;1753009;81;20115;-70
2022/01/04 02:59:06;;;;;;;;;;;;;;;13.00;50.10;98377.23;1750305;81;20090;-69
2022/01/04 03:01:33;;;;;;;;;;;;;;;12.70;50.35;98378.45;1751365;81;20225;-70
2022/01/04 03:03:59;;;;;;;;;;;;;;;12.60;50.88;98373.08;1750001;81;20511;-69
2022/01/04 03:06:25;;;;;;;;;;;;;;;12.60;50.71;98373.88;1733977;82;21098;-69
2022/01/04 03:08:51;;;;;;;;;;;;;;;12.63;50.73;98383.84;1734553;82;20226;-71
2022/01/04 03:11:20;;;;;;;;;;;;;;;12.68;50.41;98382.33;1733752;82;20161;-71
2022/01/04 03:13:48;;;;;;;;;;;;;;;12.18;51.53;98387.92;1735849;82;20119;-70
2022/01/04 03:16:16;;;;;;;;;;;;;;;11.84;52.60;98393.15;1735865;82;20139;-69
2022/01/04 03:19:26;;;;;;;;;;;;;;;12.29;51.86;98398.02;1734749;82;21164;-70
2022/01/04 03:21:15;;;;;;;;;;;;;;;12.24;51.77;98396.12;1730578;82;21225;-69
2022/01/04 03:23:42;;;;;;;;;;;;;;;12.05;52.36;98401.32;1735728;82;20091;-69
2022/01/04 03:26:08;;;;;;;;;;;;;;;12.26;51.88;98414.95;1734094;82;20102;-70
2022/01/04 03:28:40;;;;;;;;;;;;;;;12.50;51.68;98414.75;1734848;82;20189;-69
2022/01/04 03:31:07;;;;;;;;;;;;;;;12.64;51.47;98416.79;1734974;82;21149;-69
2022/01/04 03:33:35;;;;;;;;;;;;;;;12.57;51.60;98425.31;1735047;82;20232;-69
2022/01/04 03:36:02;;;;;;;;;;;;;;;12.34;52.39;98425.52;1734298;82;20333;-72
2022/01/04 03:38:29;;;;;;;;;;;;;;;12.02;53.22;98423.98;1734944;82;20506;-70
2022/01/04 03:40:55;;;;;;;;;;;;;;;12.80;52.33;98429.54;1734727;82;20181;-70
2022/01/04 03:43:22;;;;;;;;;;;;;;;12.29;52.52;98428.84;1735263;82;21220;-69
2022/01/04 03:45:49;;;;;;;;;;;;;;;12.77;51.43;98431.35;1735606;82;20659;-72
2022/01/04 03:48:16;;;;;;;;;;;;;;;12.84;51.01;98430.66;1735333;82;20388;-69
2022/01/04 03:50:42;;;;;;;;;;;;;;;12.33;51.81;98436.48;1734854;82;20098;-71
2022/01/04 03:53:08;;;;;;;;;;;;;;;12.18;52.95;98433.64;1734531;82;20189;-71
2022/01/04 03:55:35;;;;;;;;;;;;;;;11.87;53.30;98435.76;1735265;82;21173;-71
2022/01/04 03:58:01;;;;;;;;;;;;;;;12.08;53.73;98438.17;1735490;82;20153;-71
2022/01/04 04:00:28;;;;;;;;;;;;;;;12.19;53.32;98441.74;1737280;80;20280;-70
2022/01/04 04:02:54;;;;;;;;;;;;;;;12.32;52.91;98445.87;1759400;79;20442;-71
2022/01/04 04:05:21;;;;;;;;;;;;;;;12.34;52.62;98456.34;1755828;79;20491;-71
2022/01/04 04:07:47;;;;;;;;;;;;;;;12.26;52.37;98452.04;1754767;80;21148;-71
2022/01/04 04:10:14;;;;;;;;;;;;;;;12.04;52.57;98448.03;1755816;79;20080;-70
2022/01/04 04:12:41;;;;;;;;;;;;;;;11.85;52.06;98452.67;1756657;79;20181;-69
2022/01/04 04:15:09;;;;;;;;;;;;;;;11.75;51.98;98465.02;1754126;79;20180;-70
2022/01/04 04:17:37;;;;;;;;;;;;;;;11.70;52.12;98471.44;1755331;80;20196;-70
2022/01/04 04:20:04;;;;;;;;;;;;;;;11.86;51.76;98477.27;1755736;80;21102;-70
2022/01/04 04:22:31;;;;;;;;;;;;;;;12.04;51.82;98474.14;1755268;80;20112;-70
2022/01/04 04:24:57;;;;;;;;;;;;;;;12.05;51.38;98484.89;1756297;79;20466;-70
2022/01/04 04:27:24;;;;;;;;;;;;;;;12.15;50.91;98496.80;1754894;80;20156;-70
2022/01/04 04:29:50;;;;;;;;;;;;;;;12.29;50.41;98495.47;1756638;79;20132;-70
2022/01/04 04:32:16;;;;;;;;;;;;;;;12.09;50.35;98508.98;1755550;79;21126;-70
2022/01/04 04:34:43;;;;;;;;;;;;;;;12.03;50.47;98506.52;1755464;79;20651;-69
2022/01/04 04:37:09;;;;;;;;;;;;;;;11.67;51.28;98508.47;1754912;80;20187;-71
2022/01/04 04:39:35;;;;;;;;;;;;;;;11.71;51.20;98518.72;1755113;79;20171;-70
2022/01/04 04:42:03;;;;;;;;;;;;;;;11.92;50.93;98524.61;1725847;81;20454;-69
2022/01/04 04:44:29;;;;;;;;;;;;;;;12.14;50.17;98527.34;1780610;78;21172;-70
2022/01/04 04:46:58;;;;;;;;;;;;;;;12.24;49.83;98528.56;1781427;79;20086;-70
2022/01/04 04:49:24;;;;;;;;;;;;;;;12.35;49.60;98523.27;1780473;80;20147;-70
2022/01/04 04:51:51;;;;;;;;;;;;;;;12.22;49.61;98530.61;1780754;80;20358;-69
2022/01/04 04:54:17;;;;;;;;;;;;;;;12.33;48.96;98532.36;1780921;80;20108;-69
2022/01/04 04:56:43;;;;;;;;;;;;;;;12.48;48.79;98544.89;1782122;79;21117;-70
2022/01/04 04:59:10;;;;;;;;;;;;;;;12.13;49.33;98543.27;1781586;79;20487;-70
2022/01/04 05:01:38;;;;;;;;;;;;;;;11.84;49.88;98556.83;1775075;78;20145;-71
2022/01/04 05:04:05;;;;;;;;;;;;;;;12.10;49.57;98564.62;1755336;80;20247;-69
2022/01/04 05:06:34;;;;;;;;;;;;;;;12.19;48.89;98568.43;1756294;80;20227;-69
2022/01/04 05:09:01;;;;;;;;;;;;;;;12.29;48.58;98568.62;1757132;80;21202;-71
2022/01/04 05:11:27;;;;;;;;;;;;;;;12.29;48.42;98571.75;1754842;80;20100;-72
2022/01/04 05:13:53;;;;;;;;;;;;;;;12.15;48.88;98590.30;1759649;79;20163;-71
2022/01/04 05:16:20;;;;;;;;;;;;;;;12.25;48.75;98603.29;1756610;80;20084;-71
2022/01/04 05:18:46;;;;;;;;;;;;;;;12.36;48.27;98601.14;1756765;80;20446;-70
2022/01/04 05:21:16;;;;;;;;;;;;;;;12.34;48.44;98613.11;1756628;80;20157;-70
2022/01/04 05:23:42;;;;;;;;;;;;;;;12.28;48.23;98611.45;1756262;80;20092;-69
2022/01/04 05:26:09;;;;;;;;;;;;;;;12.25;48.67;98625.49;1756656;80;20226;-68
2022/01/04 05:28:36;;;;;;;;;;;;;;;12.34;48.21;98625.39;1756064;80;20141;-68
2022/01/04 05:31:02;;;;;;;;;;;;;;;12.75;47.46;98630.01;1757251;80;20132;-68
2022/01/04 05:33:28;;;;;;;;;;;;;;;12.74;47.34;98617.45;1755118;81;21095;-70
2022/01/04 05:35:55;;;;;;;;;;;;;;;13.01;46.79;98622.05;1756499;80;20965;-68
2022/01/04 05:38:21;;;;;;;;;;;;;;;13.37;46.02;98630.73;1756559;80;20838;-68
2022/01/04 05:40:47;;;;;;;;;;;;;;;12.66;46.81;98642.69;1757401;80;20163;-68
2022/01/04 05:43:14;;;;;;;;;;;;;;;12.57;47.15;98642.25;1759889;80;20116;-68
2022/01/04 05:45:40;;;;;;;;;;;;;;;12.33;47.82;98648.11;1758909;80;21152;-68
2022/01/04 05:48:08;;;;;;;;;;;;;;;12.76;47.15;98646.76;1759779;80;20159;-68
2022/01/04 05:50:38;;;;;;;;;;;;;;;12.30;47.69;98655.11;1759218;80;20195;-69
2022/01/04 05:53:09;;;;;;;;;;;;;;;12.33;47.78;98663.79;1760509;80;20120;-69
2022/01/04 05:55:37;;;;;;;;;;;;;;;11.82;48.60;98664.57;1759003;80;20072;-70
2022/01/04 05:58:03;;;;;;;;;;;;;;;12.09;48.53;98661.78;1758389;80;21015;-71
2022/01/04 06:00:30;;;;;;;;;;;;;;;11.66;49.07;98666.86;1759141;80;20161;-70
2022/01/04 06:02:58;;;;;;;;;;;;;;;11.84;49.29;98663.88;1789270;78;20119;-71
2022/01/04 06:05:24;;;;;;;;;;;;;;;12.25;48.69;98662.86;1790165;79;20164;-73
2022/01/04 06:07:53;;;;;;;;;;;;;;;12.49;48.00;98667.98;1791716;78;20215;-70
2022/01/04 06:10:19;;;;;;;;;;;;;;;12.37;47.90;98668.83;1764878;79;21238;-70
2022/01/04 06:15:15;;;;;;;;;;;;;;;12.67;46.90;98676.94;1768526;79;20200;-73
2022/01/04 06:17:46;;;;;;;;;;;;;;;12.54;47.12;98688.48;1790655;78;20068;-73
2022/01/04 06:20:15;;;;;;;;;;;;;;;12.71;46.94;98700.80;1791011;78;20183;-71
2022/01/04 06:22:42;;;;;;;;;;;;;;;12.75;46.54;98706.63;1791892;78;21071;-73
2022/01/04 06:25:13;;;;;;;;;;;;;;;12.65;46.72;98706.44;1768463;79;20596;-72
2022/01/04 06:27:44;;;;;;;;;;;;;;;12.42;47.13;98715.16;1790245;79;20223;-72
2022/01/04 06:30:16;;;;;;;;;;;;;;;12.24;47.45;98716.66;1767515;79;20439;-72
2022/01/04 06:32:43;;;;;;;;;;;;;;;12.37;46.83;98707.23;1775406;79;20496;-73
2022/01/04 06:35:10;;;;;;;;;;;;;;;12.41;46.75;98709.66;1768429;81;21154;-72
2022/01/04 06:37:38;;;;;;;;;;;;;;;12.19;47.21;98722.55;1789301;78;21339;-72
2022/01/04 06:40:07;;;;;;;;;;;;;;;12.43;46.58;98718.59;1788667;79;20218;-72
2022/01/04 06:42:35;;;;;;;;;;;;;;;12.19;46.58;98719.94;1789997;78;21288;-72
2022/01/04 06:45:03;;;;;;;;;;;;;;;12.37;46.63;98719.78;1789915;79;20195;-73
2022/01/04 06:47:30;;;;;;;;;;;;;;;12.05;46.93;98726.47;1789942;78;22568;-71
2022/01/04 06:49:58;;;;;;;;;;;;;;;11.92;47.04;98736.11;1793128;78;20146;-71
2022/01/04 06:52:25;;;;;;;;;;;;;;;12.04;46.60;98738.70;1791896;78;20252;-71
2022/01/04 06:54:51;;;;;;;;;;;;;;;12.45;46.31;98744.75;1791753;78;20184;-72
2022/01/04 06:57:19;;;;;;;;;;;;;;;12.72;45.81;98754.14;1789094;79;20096;-71
2022/01/04 06:59:46;;;;;;;;;;;;;;;11.69;46.89;98766.11;1789537;79;21150;-71
2022/01/04 07:02:12;;;;;;;;;;;;;;;11.28;47.89;98770.36;1772007;78;20998;-72
2022/01/04 07:04:38;;;;;;;;;;;;;;;10.01;50.36;98782.55;1718279;83;20129;-72
2022/01/04 07:07:05;;;;;;;;;;;;;;;10.22;50.52;98780.81;1781852;80;20140;-71
2022/01/04 07:09:32;;;;;;;;;;;;;;;9.73;51.61;98782.47;1757936;79;20187;-72
2022/01/04 07:11:59;;;;;;;;;;;;;;;9.81;52.30;98792.64;1750704;80;21119;-72
2022/01/04 07:14:25;;;;;;;;;;;;;;;10.21;51.94;98793.03;1768894;80;20245;-72
2022/01/04 07:16:51;;;;;;;;;;;;;;;10.95;50.68;98785.20;1766700;80;20465;-71
2022/01/04 07:19:18;;;;;;;;;;;;;;;11.15;49.93;98792.74;1766350;80;20206;-71
2022/01/04 07:21:44;;;;;;;;;;;;;;;11.02;49.69;98797.61;1766164;80;20441;-72
2022/01/04 07:24:11;;;;;;;;;;;;;;;11.07;49.20;98796.97;1766186;80;21107;-72
2022/01/04 07:26:37;;;;;;;;;;;;;;;10.92;49.65;98815.11;1766107;80;20079;-73
2022/01/04 07:29:03;;;;;;;;;;;;;;;11.02;49.22;98816.38;1768877;79;20147;-73
2022/01/04 07:31:31;;;;;;;;;;;;;;;11.37;48.30;98817.81;1766345;80;20215;-70
2022/01/04 07:33:57;;;;;;;;;;;;;;;11.42;47.81;98823.94;1766906;80;20473;-70
2022/01/04 07:36:26;;;;;;;;;;;;;;;11.52;47.78;98818.19;1769558;80;22763;-70
2022/01/04 07:38:55;;;;;;;;;;;;;;;11.52;47.40;98826.53;1768609;80;20290;-69
2022/01/04 07:41:23;;;;;;;;;;;;;;;11.93;46.24;98818.67;1770882;79;20173;-69
2022/01/04 07:43:50;;;;;;;;;;;;;;;11.61;46.36;98829.88;1768463;80;20513;-70
2022/01/04 07:46:16;;;;;;;;;;;;;;;11.78;46.10;98832.64;1766165;80;20136;-70
2022/01/04 07:48:43;;;;;;;;;;;;;;;11.92;45.89;98840.55;1769372;80;21216;-71
2022/01/04 07:51:09;;;;;;;;;;;;;;;11.74;45.76;98844.53;1768738;80;20150;-70
2022/01/04 07:53:35;;;;;;;;;;;;;;;11.62;45.79;98844.52;1767037;80;20425;-70
2022/01/04 07:56:02;;;;;;;;;;;;;;;11.19;46.60;98846.84;1765963;80;20565;-70
2022/01/04 07:58:30;;;;;;;;;;;;;;;11.42;46.26;98848.73;1772052;80;20191;-71
2022/01/04 08:00:56;;;;;;;;;;;;;;;11.33;45.99;98857.11;1771557;80;21133;-71
2022/01/04 08:03:22;;;;;;;;;;;;;;;11.83;45.34;98861.98;1764980;79;20097;-69
2022/01/04 08:05:51;;;;;;;;;;;;;;;11.47;45.61;98868.14;1766009;80;20141;-69
2022/01/04 08:08:18;;;;;;;;;;;;;;;11.12;46.42;98877.94;1749573;80;20170;-70
2022/01/04 08:10:46;;;;;;;;;;;;;;;11.26;46.10;98868.93;1751362;80;20249;-67
2022/01/04 08:13:13;;;;;;;;;;;;;;;11.51;46.03;98879.20;1753688;81;21829;-70
2022/01/04 08:15:40;;;;;;;;;;;;;;;11.55;45.52;98870.42;1716674;82;20163;-69
2022/01/04 08:18:06;;;;;;;;;;;;;;;11.67;45.53;98878.59;1762686;80;20182;-71
2022/01/04 08:20:34;;;;;;;;;;;;;;;12.16;44.54;98870.11;1758677;80;20490;-70
2022/01/04 08:23:02;;;;;;;;;;;;;;;12.35;44.04;98868.66;1761563;80;20340;-70
2022/01/04 08:25:32;;;;;;;;;;;;;;;12.09;44.21;98873.34;1758400;80;22242;-71
2022/01/04 08:28:01;;;;;;;;;;;;;;;12.14;44.36;98876.58;1783896;80;20098;-69
2022/01/04 08:30:29;;;;;;;;;;;;;;;11.98;44.43;98873.34;1768053;80;20122;-70
2022/01/04 08:32:58;;;;;;;;;;;;;;;12.05;44.18;98879.25;1756417;80;20149;-70
2022/01/04 08:35:24;;;;;;;;;;;;;;;11.91;43.91;98882.06;1715726;82;20177;-71
2022/01/04 08:37:51;;;;;;;;;;;;;;;11.76;44.08;98890.80;1760766;80;21161;-72
2022/01/04 08:40:20;;;;;;;;;;;;;;;11.74;44.47;98894.64;1759693;80;20548;-72
2022/01/04 08:42:49;;;;;;;;;;;;;;;11.78;44.08;98898.40;1760633;80;20485;-72
2022/01/04 08:45:17;;;;;;;;;;;;;;;11.51;44.53;98901.90;1762107;80;20120;-71
2022/01/04 08:47:44;;;;;;;;;;;;;;;11.46;45.26;98907.79;1764056;79;20133;-69
2022/01/04 08:50:11;;;;;;;;;;;;;;;11.71;45.05;98902.95;1762862;80;21135;-71
2022/01/04 08:52:40;;;;;;;;;;;;;;;11.68;44.77;98913.31;1765549;80;20147;-72
2022/01/04 08:55:09;;;;;;;;;;;;;;;12.13;44.14;98911.56;1758966;80;20153;-69
2022/01/04 08:57:38;;;;;;;;;;;;;;;11.95;44.10;98906.42;1757255;80;20799;-68
2022/01/04 09:00:06;;;;;;;;;;;;;;;11.93;44.05;98916.59;1761558;80;20182;-71
2022/01/04 09:02:33;;;;;;;;;;;;;;;11.59;44.60;98921.16;1763044;80;21190;-70
2022/01/04 09:05:00;;;;;;;;;;;;;;;11.72;44.40;98920.19;1760589;80;20489;-69
2022/01/04 09:07:30;;;;;;;;;;;;;;;11.74;44.46;98921.54;1760723;80;20096;-71
2022/01/04 09:09:59;;;;;;;;;;;;;;;11.52;44.49;98923.88;1762639;80;20225;-71
2022/01/04 09:12:34;;;;;;;;;;;;;;;11.35;44.71;98921.07;1759775;80;20128;-72
2022/01/04 09:15:05;;;;;;;;;;;;;;;11.80;44.14;98912.83;1759593;80;21135;-71
2022/01/04 09:20:12;;;;;;;;;;;;;;;11.70;44.12;98921.70;1759918;80;20155;-71
2022/01/04 09:22:40;;;;;;;;;;;;;;;11.53;44.70;98933.80;1760258;80;20158;-72
2022/01/04 09:25:06;;;;;;;;;;;;;;;11.38;45.06;98936.29;1764208;80;20246;-72
2022/01/04 09:27:33;;;;;;;;;;;;;;;11.31;44.82;98936.09;1760852;80;21151;-72
2022/01/04 09:30:04;;;;;;;;;;;;;;;11.59;44.49;98932.90;1762143;80;20453;-70
2022/01/04 09:32:31;;;;;;;;;;;;;;;11.84;43.86;98919.22;1759664;80;20302;-69
2022/01/04 09:35:03;;;;;;;;;;;;;;;11.50;44.01;98927.20;1761556;80;21122;-69
2022/01/04 09:37:31;;;;;;;;;;;;;;;11.66;43.83;98927.08;1763706;80;20080;-70
2022/01/04 09:39:57;;;;;;;;;;;;;;;11.50;43.86;98939.45;1763502;80;21092;-73
2022/01/04 09:42:24;;;;;;;;;;;;;;;11.73;43.45;98933.01;1763741;80;20407;-71
2022/01/04 09:44:50;;;;;;;;;;;;;;;11.53;43.59;98948.16;1744738;80;21030;-71
2022/01/04 09:47:17;;;;;;;;;;;;;;;11.50;43.92;98962.94;1711415;83;20162;-70
2022/01/04 09:49:45;;;;;;;;;;;;;;;11.45;43.81;98956.58;1711308;83;20148;-70
2022/01/04 09:52:15;;;;;;;;;;;;;;;11.69;43.72;98960.58;1750913;81;21151;-71
2022/01/04 09:54:41;;;;;;;;;;;;;;;12.07;42.85;98952.42;1715210;83;20121;-72
2022/01/04 09:57:09;;;;;;;;;;;;;;;11.82;42.95;98955.67;1761145;80;20151;-71
2022/01/04 09:59:35;;;;;;;;;;;;;;;11.31;43.89;98962.97;1785813;80;20171;-71
2022/01/04 10:02:14;;;;;;;;;;;;;;;11.69;42.96;98959.27;1779812;80;20476;-71
2022/01/04 10:04:40;;;;;;;;;;;;;;;11.73;42.98;98959.11;1781584;79;21837;-71
2022/01/04 10:07:07;;;;;;;;;;;;;;;11.48;43.03;98963.66;1782934;80;20195;-71
2022/01/04 10:09:45;;;;;;;;;;;;;;;11.46;43.27;98969.11;1785438;80;20096;-71
2022/01/04 10:12:14;;;;;;;;;;;;;;;11.47;43.33;98969.91;1778840;80;21208;-74
2022/01/04 10:14:43;;;;;;;;;;;;;;;11.23;43.46;98968.48;1784360;80;20246;-72
2022/01/04 10:17:15;;;;;;;;;;;;;;;11.55;43.06;98961.77;1785840;80;20080;-71
2022/01/04 10:19:48;;;;;;;;;;;;;;;11.53;43.16;98976.86;1773575;80;20092;-73
2022/01/04 10:22:24;;;;;;;;;;;;;;;11.62;42.75;98970.31;1719136;81;20667;-72
2022/01/04 10:25:04;;;;;;;;;;;;;;;11.66;42.11;98975.38;1757685;81;20520;-73
2022/01/04 10:27:43;;;;;;;;;;;;;;;11.33;42.96;98977.91;1750131;81;20147;-74
2022/01/04 10:30:17;;;;;;;;;;;;;;;11.61;42.99;98980.47;1713055;82;21144;-74
2022/01/04 10:32:46;;;;;;;;;;;;;;;11.83;42.40;98987.31;1764614;80;20084;-74
2022/01/04 10:35:33;;;;;;;;;;;;;;;12.05;42.48;98983.72;1763389;80;20748;-73
2022/01/04 10:38:10;;;;;;;;;;;;;;;11.90;42.28;98999.28;1761010;80;20282;-74
2022/01/04 10:40:38;;;;;;;;;;;;;;;11.93;41.53;99000.16;1746872;80;20589;-72
2022/01/04 10:43:13;;;;;;;;;;;;;;;12.28;41.47;98996.83;1747157;81;21137;-73
2022/01/04 10:45:46;;;;;;;;;;;;;;;12.19;41.78;99004.69;1747913;80;20166;-72
2022/01/04 10:48:21;;;;;;;;;;;;;;;12.21;41.82;99007.89;1762124;80;20164;-72
2022/01/04 10:50:51;;;;;;;;;;;;;;;11.99;41.90;99007.59;1764071;80;20272;-72
2022/01/04 10:53:37;;;;;;;;;;;;;;;11.58;42.56;99021.36;1758237;80;20243;-73
2022/01/04 10:56:06;;;;;;;;;;;;;;;11.87;42.22;99020.61;1760570;80;21249;-73
2022/01/04 10:58:39;;;;;;;;;;;;;;;11.80;42.41;99022.48;1762664;79;20264;-73
2022/01/04 11:01:13;;;;;;;;;;;;;;;12.03;41.83;99026.23;1744476;80;34316;-73
2022/01/04 11:03:43;;;;;;;;;;;;;;;11.87;42.04;99032.36;1766434;79;20155;-72
2022/01/04 11:06:14;;;;;;;;;;;;;;;11.97;42.00;99040.16;1765832;79;20132;-73
2022/01/04 11:08:43;;;;;;;;;;;;;;;12.21;41.01;99035.83;1765289;79;21896;-73
2022/01/04 11:11:10;;;;;;;;;;;;;;;12.13;41.24;99044.78;1766669;79;21215;-72
2022/01/04 11:13:38;;;;;;;;;;;;;;;12.04;41.14;99036.95;1766444;80;20171;-73
2022/01/04 11:16:09;;;;;;;;;;;;;;;11.92;41.03;99042.14;1765072;79;20096;-73
2022/01/04 11:18:43;;;;;;;;;;;;;;;12.07;41.28;99051.67;1765509;80;20136;-73
2022/01/04 11:21:11;;;;;;;;;;;;;;;11.67;41.25;99057.91;1767255;80;21151;-73
2022/01/04 11:23:38;;;;;;;;;;;;;;;11.47;41.51;99063.84;1736194;80;20173;-72
2022/01/04 11:26:04;;;;;;;;;;;;;;;11.42;41.84;99065.30;1758466;80;20155;-73
2022/01/04 11:28:34;;;;;;;;;;;;;;;11.38;42.34;99055.52;1760683;80;21763;-74
2022/01/04 11:31:28;;;;;;;;;;;;;;;10.56;43.31;99063.97;1761209;79;21020;-73
2022/01/04 11:34:11;;;;;;;;;;;;;;;10.57;43.82;99066.38;1761328;80;22265;-72
2022/01/04 11:36:43;;;;;;;;;;;;;;;10.66;43.63;99063.80;1760827;79;20163;-73
2022/01/04 11:39:30;;;;;;;;;;;;;;;10.84;43.21;99074.00;1754563;80;20140;-73
2022/01/04 11:41:57;;;;;;;;;;;;;;;10.34;44.11;99085.18;1760520;80;20327;-73
2022/01/04 11:44:26;;;;;;;;;;;;;;;10.34;44.40;99091.69;1754975;80;20278;-70
2022/01/04 11:47:05;;;;;;;;;;;;;;;11.13;43.29;99092.08;1756906;79;21169;-74
2022/01/04 11:49:36;;;;;;;;;;;;;;;11.53;42.57;99096.91;1761266;80;20195;-73
2022/01/04 11:52:04;;;;;;;;;;;;;;;11.27;42.70;99114.42;1758471;80;20167;-72
2022/01/04 11:54:32;;;;;;;;;;;;;;;11.71;42.07;99104.74;1754380;80;20089;-73
2022/01/04 11:57:03;;;;;;;;;;;;;;;11.43;42.14;99117.77;1762223;80;20830;-73
2022/01/04 11:59:38;;;;;;;;;;;;;;;11.62;41.58;99116.47;1758430;80;21084;-74
2022/01/04 12:02:37;;;;;;;;;;;;;;;11.37;41.68;99118.64;1763229;80;20183;-74
2022/01/04 12:05:15;;;;;;;;;;;;;;;11.37;41.63;99125.17;1751416;80;20359;-75
2022/01/04 12:07:45;;;;;;;;;;;;;;;11.00;42.24;99120.89;1783743;78;20220;-74
2022/01/04 12:10:25;;;;;;;;;;;;;;;10.98;42.51;99132.81;1748456;80;20280;-74
2022/01/04 12:12:58;;;;;;;;;;;;;;;11.03;42.40;99138.21;1783439;78;21134;-75
2022/01/04 12:15:38;;;;;;;;;;;;;;;11.24;42.31;99137.02;1780963;78;20258;-73
2022/01/04 12:18:24;;;;;;;;;;;;;;;11.38;42.64;99141.62;1753479;80;20204;-74
2022/01/04 12:20:52;;;;;;;;;;;;;;;11.05;43.15;99141.39;1784346;78;20291;-73
2022/01/04 12:23:34;;;;;;;;;;;;;;;11.05;42.42;99145.81;1780304;78;20786;-75
2022/01/04 12:26:11;;;;;;;;;;;;;;;11.08;42.38;99154.52;1751125;80;21142;-74
2022/01/04 12:28:47;;;;;;;;;;;;;;;10.86;42.63;99157.48;1757972;80;20621;-75
2022/01/04 12:31:23;;;;;;;;;;;;;;;10.98;42.26;99157.59;1777726;78;20374;-74
2022/01/04 12:33:50;;;;;;;;;;;;;;;10.74;42.27;99165.69;1782263;80;20136;-74
2022/01/04 13:37:19;;;;;;;10.03;6.60;;;;;;;0.53;100.00;99319.77;1757359;79;22224;-73
2022/01/04 13:39:49;;;;;;;9.10;6.40;;;;;;;3.33;100.00;99316.67;1732602;81;21038;-77
2022/01/04 13:42:38;;;;;;;9.43;5.22;;;;;;;2.62;100.00;99319.70;1737964;81;21172;-72
2022/01/04 13:45:20;;;;;;;7.62;5.03;;;;;;;2.56;100.00;99324.97;1737768;81;20955;-75
2022/01/04 13:47:50;;;;;;;9.83;5.83;;;;;;;2.35;100.00;99331.80;1729428;81;21481;-72
2022/01/04 13:50:45;;;;;;;7.50;5.20;;;;;;;2.40;100.00;99341.62;1729703;81;21029;-76
2022/01/04 13:53:19;;;;;;;10.15;5.53;;;;;;;2.40;100.00;99348.05;1735115;80;21096;-74
2022/01/04 13:56:03;;;;;;;9.63;5.45;;;;;;;2.64;100.00;99353.78;1728875;81;21150;-76
2022/01/04 13:58:49;;;;;;;10.23;6.20;;;;;;;2.45;100.00;99356.10;1678772;84;20927;-75
2022/01/04 14:01:39;;;;;;;12.37;7.45;;;;;;;2.35;100.00;99355.39;1677249;83;21111;-75
2022/01/04 14:04:18;;;;;;;9.98;6.10;;;;;;;2.26;100.00;99356.31;1681463;83;21896;-73